createdAt,value
2022-12-18T00:02:59.107Z,12.33
2022-12-18T00:06:04.034Z,12.47
2022-12-18T00:09:06.156Z,14.10
2022-12-18T00:15:21.125Z,13.98
2022-12-18T00:18:23.415Z,9.43
2022-12-18T00:21:25.987Z,12.57
2022-12-18T00:24:30.197Z,13.43
2022-12-18T00:27:32.299Z,11.13
2022-12-18T00:30:34.265Z,15.05
2022-12-18T00:33:37.620Z,12.70
2022-12-18T00:36:44.644Z,13.37
2022-12-18T00:39:47.150Z,13.45
2022-12-18T00:42:57.723Z,10.77
2022-12-18T00:45:59.652Z,11.93
2022-12-18T00:49:02.111Z,11.03
2022-12-18T00:52:03.980Z,9.10
2022-12-18T00:55:06.771Z,11.95
2022-12-18T00:58:11.556Z,14.07
2022-12-18T01:01:13.608Z,12.77
2022-12-18T01:04:16.310Z,14.23
2022-12-18T01:07:18.255Z,11.53
2022-12-18T01:10:21.238Z,13.23
2022-12-18T01:13:26.212Z,12.93
2022-12-18T01:16:28.501Z,13.38
2022-12-18T01:19:31.171Z,12.73
2022-12-18T01:22:34.453Z,14.10
2022-12-18T01:25:39.879Z,12.88
2022-12-18T01:28:44.965Z,12.30
2022-12-18T01:31:48.075Z,13.43
2022-12-18T01:34:50.008Z,12.47
2022-12-18T01:37:56.271Z,14.37
2022-12-18T01:41:00.168Z,12.38
2022-12-18T01:44:02.101Z,13.85
2022-12-18T01:47:04.321Z,13.88
2022-12-18T01:50:12.088Z,13.23
2022-12-18T01:53:20.236Z,13.57
2022-12-18T01:56:23.201Z,13.05
2022-12-18T01:59:25.347Z,13.40
2022-12-18T02:02:30.107Z,13.75
2022-12-18T02:05:47.502Z,12.50
2022-12-18T02:09:03.403Z,12.67
2022-12-18T02:12:19.932Z,12.68
2022-12-18T02:15:40.252Z,12.45
2022-12-18T02:18:49.132Z,12.30
2022-12-18T02:21:58.306Z,14.33
2022-12-18T02:25:37.425Z,11.93
2022-12-18T02:28:45.178Z,11.55
2022-12-18T02:31:53.581Z,10.30
2022-12-18T02:34:58.510Z,11.98
2022-12-18T02:38:01.979Z,11.20
2022-12-18T02:41:07.215Z,13.37
2022-12-18T02:44:14.467Z,12.90
2022-12-18T02:47:21.538Z,13.45
2022-12-18T02:50:39.352Z,13.18
2022-12-18T02:53:50.915Z,13.13
2022-12-18T02:56:59.412Z,13.30
2022-12-18T03:00:21.624Z,12.52
2022-12-18T03:03:31.187Z,11.35
2022-12-18T03:06:48.553Z,12.80
2022-12-18T03:09:54.592Z,12.30
2022-12-18T03:13:09.993Z,13.63
2022-12-18T03:16:16.941Z,12.25
2022-12-18T03:19:23.396Z,14.10
2022-12-18T03:22:31.352Z,12.10
2022-12-18T03:25:37.091Z,12.93
2022-12-18T03:28:55.682Z,12.73
2022-12-18T03:32:05.608Z,13.68
2022-12-18T03:35:10.636Z,13.65
2022-12-18T03:38:13.335Z,13.07
2022-12-18T03:41:34.837Z,12.93
2022-12-18T03:45:15.059Z,14.30
2022-12-18T03:48:41.764Z,12.88
2022-12-18T03:51:49.032Z,13.95
2022-12-18T03:54:52.691Z,12.65
2022-12-18T03:57:55.489Z,13.90
2022-12-18T04:01:02.521Z,13.90
2022-12-18T04:04:06.039Z,13.43
2022-12-18T04:07:08.876Z,13.23
2022-12-18T04:10:11.944Z,13.25
2022-12-18T04:13:13.904Z,12.77
2022-12-18T04:16:16.171Z,13.30
2022-12-18T04:19:18.056Z,14.40
2022-12-18T04:22:20.304Z,14.73
2022-12-18T04:25:22.545Z,12.73
2022-12-18T04:28:24.665Z,13.30
2022-12-18T04:31:27.333Z,12.43
2022-12-18T04:34:29.302Z,13.63
2022-12-18T04:37:32.812Z,15.05
2022-12-18T04:40:35.272Z,13.38
2022-12-18T04:43:37.500Z,14.47
2022-12-18T04:46:39.692Z,14.70
2022-12-18T04:49:41.743Z,13.60
2022-12-18T04:52:44.327Z,13.57
2022-12-18T04:55:48.982Z,18.10
2022-12-18T04:58:52.175Z,14.50
2022-12-18T05:01:55.323Z,14.97
2022-12-18T05:04:58.208Z,14.30
2022-12-18T05:08:01.509Z,14.20
2022-12-18T05:11:10.003Z,15.05
2022-12-18T05:14:12.491Z,15.23
2022-12-18T05:17:14.349Z,16.00
2022-12-18T05:20:19.453Z,13.07
2022-12-18T05:23:22.563Z,13.75
2022-12-18T05:26:25.930Z,13.95
2022-12-18T05:29:27.962Z,11.33
2022-12-18T05:32:30.236Z,14.13
2022-12-18T05:35:32.361Z,13.30
2022-12-18T05:38:36.319Z,13.70
2022-12-18T05:41:40.119Z,14.75
2022-12-18T05:44:42.167Z,13.50
2022-12-18T05:47:44.369Z,11.97
2022-12-18T05:50:49.638Z,12.40
2022-12-18T05:53:51.590Z,14.15
2022-12-18T05:56:53.473Z,13.98
2022-12-18T05:59:55.658Z,15.03
2022-12-18T06:03:00.109Z,12.70
2022-12-18T06:06:02.943Z,14.40
2022-12-18T06:09:10.471Z,12.75
2022-12-18T06:12:12.456Z,13.25
2022-12-18T06:15:16.185Z,13.17
2022-12-18T06:18:19.000Z,13.60
2022-12-18T06:21:22.140Z,14.25
2022-12-18T06:24:24.315Z,14.52
2022-12-18T06:27:26.281Z,13.45
2022-12-18T06:30:28.331Z,13.23
2022-12-18T06:33:31.459Z,15.67
2022-12-18T06:36:33.410Z,16.33
2022-12-18T06:39:35.347Z,16.27
2022-12-18T06:42:37.739Z,16.50
2022-12-18T06:45:40.158Z,16.90
2022-12-18T06:48:42.530Z,24.33
2022-12-18T06:51:44.373Z,17.70
2022-12-18T06:54:46.242Z,16.00
2022-12-18T06:57:48.270Z,14.98
2022-12-18T07:00:50.216Z,13.97
2022-12-18T07:03:56.567Z,15.17
2022-12-18T07:06:58.738Z,15.30
2022-12-18T07:10:01.856Z,16.45
2022-12-18T07:13:03.905Z,16.85
2022-12-18T07:16:24.243Z,17.57
2022-12-18T07:19:27.357Z,17.83
2022-12-18T07:22:29.379Z,17.48
2022-12-18T07:25:38.866Z,18.85
2022-12-18T07:28:42.045Z,16.08
2022-12-18T07:31:44.161Z,16.03
2022-12-18T07:34:47.102Z,17.07
2022-12-18T07:37:49.182Z,15.48
2022-12-18T07:40:51.843Z,17.77
2022-12-18T07:43:53.865Z,15.38
2022-12-18T07:46:55.711Z,17.33
2022-12-18T07:49:57.898Z,15.30
2022-12-18T07:53:04.664Z,15.90
2022-12-18T07:56:29.145Z,15.02
2022-12-18T07:59:32.850Z,16.95
2022-12-18T08:02:35.158Z,15.43
2022-12-18T08:05:38.628Z,15.97
2022-12-18T08:08:42.419Z,16.42
2022-12-18T08:11:45.564Z,19.30
2022-12-18T08:14:47.555Z,17.38
2022-12-18T08:17:49.874Z,15.67
2022-12-18T08:20:53.688Z,18.80
2022-12-18T08:23:58.063Z,16.85
2022-12-18T08:27:27.981Z,18.23
2022-12-18T08:30:23.696Z,16.17
2022-12-18T08:33:26.041Z,18.33
2022-12-18T08:36:28.681Z,16.57
2022-12-18T08:39:31.589Z,17.63
2022-12-18T08:43:05.929Z,16.58
2022-12-18T08:46:08.201Z,14.93
2022-12-18T08:49:12.386Z,15.20
2022-12-18T08:52:14.586Z,17.87
2022-12-18T08:55:16.827Z,19.40
2022-12-18T08:58:21.872Z,19.08
2022-12-18T09:01:24.476Z,18.45
2022-12-18T09:04:26.479Z,18.23
2022-12-18T09:07:28.477Z,18.67
2022-12-18T09:10:33.194Z,17.55
2022-12-18T09:13:35.852Z,18.58
2022-12-18T09:16:38.119Z,17.17
2022-12-18T09:19:40.136Z,17.07
2022-12-18T09:22:41.964Z,17.27
2022-12-18T09:25:43.857Z,17.95
2022-12-18T09:28:45.812Z,18.20
2022-12-18T09:31:49.164Z,17.52
2022-12-18T09:34:51.196Z,18.13
2022-12-18T09:37:56.216Z,20.17
2022-12-18T09:41:07.009Z,19.70
2022-12-18T09:44:26.125Z,17.15
2022-12-18T09:47:40.381Z,19.48
2022-12-18T09:50:43.961Z,17.73
2022-12-18T09:53:52.770Z,17.60
2022-12-18T09:56:54.829Z,19.00
2022-12-18T10:00:05.820Z,19.23
2022-12-18T10:03:14.096Z,18.42
2022-12-18T10:06:40.525Z,17.77
2022-12-18T10:09:55.006Z,17.07
2022-12-18T10:13:06.027Z,17.75
2022-12-18T10:16:39.038Z,18.25
2022-12-18T10:19:51.143Z,16.02
2022-12-18T10:23:21.196Z,19.67
2022-12-18T10:26:23.449Z,18.83
2022-12-18T10:29:26.435Z,18.95
2022-12-18T10:32:31.437Z,22.40
2022-12-18T10:35:33.400Z,18.77
2022-12-18T10:38:35.537Z,17.73
2022-12-18T10:41:37.652Z,17.50
2022-12-18T10:44:39.468Z,18.65
2022-12-18T10:47:50.045Z,18.55
2022-12-18T10:54:18.949Z,19.43
2022-12-18T10:57:42.623Z,20.47
2022-12-18T11:00:44.967Z,18.25
2022-12-18T11:04:01.749Z,18.42
2022-12-18T11:07:10.201Z,17.63
2022-12-18T11:10:19.011Z,20.70
2022-12-18T11:13:24.172Z,18.57
2022-12-18T11:16:28.917Z,19.73
2022-12-18T11:19:42.521Z,19.05
2022-12-18T11:22:44.554Z,15.73
2022-12-18T11:25:55.201Z,18.77
2022-12-18T11:29:16.804Z,17.87
2022-12-18T11:32:36.258Z,17.23
2022-12-18T11:35:53.034Z,18.00
2022-12-18T11:38:58.358Z,19.05
2022-12-18T11:42:15.895Z,17.73
2022-12-18T11:45:43.531Z,18.27
2022-12-18T11:48:53.352Z,17.70
2022-12-18T11:52:18.313Z,17.52
2022-12-18T11:55:32.449Z,17.90
2022-12-18T11:58:53.844Z,16.10
2022-12-18T12:02:30.844Z,15.47
2022-12-18T12:05:43.982Z,16.75
2022-12-18T12:09:20.131Z,15.82
2022-12-18T12:12:52.232Z,16.88
2022-12-18T12:16:03.445Z,14.03
2022-12-18T12:19:23.978Z,16.23
2022-12-18T12:22:38.500Z,14.30
2022-12-18T12:25:49.629Z,13.05
2022-12-18T12:28:58.638Z,12.43
2022-12-18T12:32:08.825Z,11.33
2022-12-18T12:35:20.391Z,16.20
2022-12-18T12:38:29.910Z,13.23
2022-12-18T12:41:53.456Z,13.70
2022-12-18T12:44:59.802Z,14.50
2022-12-18T12:48:06.821Z,13.23
2022-12-18T12:51:31.487Z,12.77
2022-12-18T12:54:36.150Z,15.75
2022-12-18T12:57:42.754Z,14.80
2022-12-18T13:01:04.468Z,16.52
2022-12-18T13:04:32.652Z,15.83
2022-12-18T13:07:47.188Z,16.00
2022-12-18T13:10:49.496Z,17.23
2022-12-18T13:13:57.025Z,17.10
2022-12-18T13:17:30.846Z,19.23
2022-12-18T13:21:04.091Z,19.90
2022-12-18T13:24:22.993Z,16.80
2022-12-18T13:27:54.921Z,18.52
2022-12-18T13:30:58.877Z,21.52
2022-12-18T13:34:28.420Z,20.90
2022-12-18T13:37:34.025Z,21.03
2022-12-18T13:40:48.575Z,19.33
2022-12-18T13:43:52.764Z,22.60
2022-12-18T13:46:55.446Z,23.27
2022-12-18T13:49:58.225Z,23.27
2022-12-18T13:53:03.231Z,25.23
2022-12-18T13:56:06.350Z,22.77
2022-12-18T13:59:25.035Z,26.40
2022-12-18T14:02:29.480Z,24.35
2022-12-18T14:05:36.442Z,21.77
2022-12-18T14:08:43.254Z,22.20
2022-12-18T14:11:51.257Z,21.77
2022-12-18T14:14:55.042Z,21.17
2022-12-18T14:18:01.396Z,20.40
2022-12-18T14:21:06.003Z,19.60
2022-12-18T14:24:20.242Z,20.23
2022-12-18T14:27:26.868Z,18.43
2022-12-18T14:30:33.063Z,18.20
2022-12-18T14:33:35.021Z,16.52
2022-12-18T14:36:37.272Z,16.65
2022-12-18T14:39:39.905Z,16.53
2022-12-18T14:42:43.278Z,18.03
2022-12-18T14:45:47.585Z,18.85
2022-12-18T14:48:49.850Z,19.42
2022-12-18T14:51:59.158Z,19.45
2022-12-18T14:55:01.212Z,20.33
2022-12-18T14:58:03.512Z,19.17
2022-12-18T15:01:05.645Z,21.48
2022-12-18T15:04:26.269Z,21.15
2022-12-18T15:07:40.605Z,22.30
2022-12-18T15:10:48.957Z,20.63
2022-12-18T15:13:53.362Z,19.40
2022-12-18T15:16:57.577Z,20.55
2022-12-18T15:20:10.093Z,23.15
2022-12-18T15:23:27.189Z,22.77
2022-12-18T15:26:38.549Z,22.53
2022-12-18T15:29:40.805Z,21.50
2022-12-18T15:32:43.241Z,22.27
2022-12-18T15:35:47.301Z,21.75
2022-12-18T15:38:58.889Z,21.77
2022-12-18T15:42:28.690Z,25.60
2022-12-18T15:45:31.127Z,20.43
2022-12-18T15:48:36.503Z,22.52
2022-12-18T15:51:39.476Z,21.95
2022-12-18T15:55:00.867Z,25.10
2022-12-18T15:58:02.669Z,22.17
2022-12-18T16:01:05.271Z,24.20
2022-12-18T16:04:08.090Z,24.70
2022-12-18T16:07:15.123Z,24.27
2022-12-18T16:10:20.856Z,23.88
2022-12-18T16:13:24.105Z,23.50
2022-12-18T16:16:26.374Z,21.70
2022-12-18T16:19:31.050Z,22.92
2022-12-18T16:22:33.405Z,23.20
2022-12-18T16:25:35.277Z,23.80
2022-12-18T16:28:37.815Z,23.73
2022-12-18T16:31:40.479Z,22.90
2022-12-18T16:34:43.408Z,22.38
2022-12-18T16:37:45.605Z,22.98
2022-12-18T16:41:07.560Z,22.90
2022-12-18T16:44:10.077Z,24.73
2022-12-18T16:47:14.879Z,23.13
2022-12-18T16:50:17.769Z,26.02
2022-12-18T16:53:19.913Z,25.90
2022-12-18T16:56:22.523Z,25.40
2022-12-18T16:59:26.859Z,25.33
2022-12-18T17:02:29.459Z,24.37
2022-12-18T17:05:34.108Z,23.67
2022-12-18T17:08:36.765Z,25.65
2022-12-18T17:11:39.111Z,26.05
2022-12-18T17:14:41.587Z,24.93
2022-12-18T17:17:44.557Z,27.20
2022-12-18T17:20:47.032Z,27.33
2022-12-18T17:23:53.345Z,26.45
2022-12-18T17:26:55.289Z,28.63
2022-12-18T17:29:57.467Z,26.90
2022-12-18T17:32:59.934Z,27.97
2022-12-18T17:36:04.442Z,28.73
2022-12-18T17:39:07.666Z,30.08
2022-12-18T17:42:10.899Z,31.95
2022-12-18T17:45:17.423Z,29.70
2022-12-18T17:48:19.915Z,31.10
2022-12-18T17:51:22.306Z,30.58
2022-12-18T17:54:24.398Z,31.27
2022-12-18T17:57:26.657Z,31.63
2022-12-18T18:03:33.828Z,31.17
2022-12-18T18:06:39.011Z,32.05
2022-12-18T18:09:42.875Z,31.30
2022-12-18T18:13:03.516Z,33.55
2022-12-18T18:16:08.116Z,33.53
2022-12-18T18:19:13.249Z,33.23
2022-12-18T18:22:15.739Z,34.75
2022-12-18T18:25:18.237Z,34.22
2022-12-18T18:28:21.379Z,38.10
2022-12-18T18:31:24.689Z,36.33
2022-12-18T18:34:30.420Z,35.70
2022-12-18T18:37:33.061Z,36.83
2022-12-18T18:40:37.344Z,38.80
2022-12-18T18:43:39.985Z,36.40
2022-12-18T18:46:42.786Z,38.37
2022-12-18T18:49:45.039Z,39.10
2022-12-18T18:52:47.994Z,39.80
2022-12-18T18:56:17.283Z,44.17
2022-12-18T18:59:12.731Z,43.28
2022-12-18T19:02:18.204Z,42.13
2022-12-18T19:05:22.314Z,41.67
2022-12-18T19:08:24.600Z,41.05
2022-12-18T19:11:45.801Z,42.75
2022-12-18T19:14:48.233Z,42.95
2022-12-18T19:17:50.391Z,41.57
2022-12-18T19:21:02.840Z,44.40
2022-12-18T19:24:06.286Z,40.10
2022-12-18T19:27:08.369Z,45.00
2022-12-18T19:30:10.940Z,43.20
2022-12-18T19:33:41.977Z,39.70
2022-12-18T19:36:39.280Z,35.23
2022-12-18T19:39:41.462Z,36.92
2022-12-18T19:42:43.896Z,38.63
2022-12-18T19:45:55.088Z,35.95
2022-12-18T19:48:59.843Z,33.93
2022-12-18T19:52:03.182Z,34.30
2022-12-18T19:55:05.868Z,29.35
2022-12-18T19:58:11.207Z,31.67
2022-12-18T20:01:16.428Z,29.67
2022-12-18T20:04:19.184Z,30.33
2022-12-18T20:07:21.588Z,28.20
2022-12-18T20:10:24.846Z,24.83
2022-12-18T20:13:26.886Z,29.60
2022-12-18T20:16:30.226Z,30.30
2022-12-18T20:19:34.160Z,28.17
2022-12-18T20:22:37.461Z,29.93
2022-12-18T20:25:41.512Z,29.35
2022-12-18T20:28:43.561Z,29.60
2022-12-18T20:31:45.927Z,29.92
2022-12-18T20:34:47.890Z,32.50
2022-12-18T20:37:50.938Z,29.23
2022-12-18T20:40:56.500Z,30.95
2022-12-18T20:43:59.134Z,33.00
2022-12-18T20:47:08.457Z,29.73
2022-12-18T20:50:11.693Z,32.93
2022-12-18T20:53:13.681Z,34.37
2022-12-18T20:56:21.569Z,30.17
2022-12-18T20:59:25.871Z,33.03
2022-12-18T21:02:28.462Z,33.90
2022-12-18T21:05:31.414Z,30.90
2022-12-18T21:08:35.298Z,33.50
2022-12-18T21:11:55.980Z,32.85
2022-12-18T21:14:59.792Z,33.22
2022-12-18T21:18:01.882Z,33.00
2022-12-18T21:21:03.796Z,34.10
2022-12-18T21:24:07.686Z,35.03
2022-12-18T21:27:10.601Z,35.10
2022-12-18T21:30:17.223Z,34.65
2022-12-18T21:33:19.131Z,35.80
2022-12-18T21:36:21.185Z,34.67
2022-12-18T21:39:23.952Z,31.63
2022-12-18T21:42:44.976Z,31.30
2022-12-18T21:45:47.072Z,32.15
2022-12-18T21:48:49.285Z,33.45
2022-12-18T21:51:57.117Z,31.30
2022-12-18T21:55:06.256Z,34.13
2022-12-18T21:58:10.995Z,32.35
2022-12-18T22:01:13.131Z,33.10
2022-12-18T22:04:16.026Z,30.33
2022-12-18T22:07:18.456Z,32.53
2022-12-18T22:10:21.017Z,26.53
2022-12-18T22:13:22.885Z,24.30
2022-12-18T22:16:25.010Z,20.08
2022-12-18T22:19:27.092Z,31.67
2022-12-18T22:22:29.258Z,30.03
2022-12-18T22:25:31.369Z,33.87
2022-12-18T22:28:54.404Z,31.80
2022-12-18T22:31:56.268Z,26.75
2022-12-18T22:35:05.248Z,27.90
2022-12-18T22:38:08.654Z,31.13
2022-12-18T22:41:10.901Z,33.70
2022-12-18T22:44:15.695Z,31.35
2022-12-18T22:47:21.908Z,29.83
2022-12-18T22:50:27.088Z,20.55
2022-12-18T22:53:30.503Z,33.83
2022-12-18T22:56:32.332Z,33.70
2022-12-18T22:59:34.897Z,31.77
2022-12-18T23:02:37.144Z,27.45
2022-12-18T23:05:39.238Z,32.22
2022-12-18T23:08:41.759Z,31.40
2022-12-18T23:11:44.876Z,32.13
2022-12-18T23:14:47.406Z,31.70
2022-12-18T23:17:49.484Z,32.45
2022-12-18T23:20:51.702Z,33.03
2022-12-18T23:23:57.311Z,33.03
2022-12-18T23:26:59.321Z,27.07
2022-12-18T23:30:01.345Z,30.48
2022-12-18T23:33:04.839Z,23.90
2022-12-18T23:36:07.505Z,18.05
2022-12-18T23:39:11.485Z,25.03
2022-12-18T23:42:14.864Z,25.20
2022-12-18T23:45:17.953Z,22.05
2022-12-18T23:48:21.339Z,24.40
2022-12-18T23:51:25.714Z,28.55
2022-12-18T23:54:33.402Z,29.93
2022-12-18T23:57:35.774Z,28.80
